createdAt,value
2019-05-13T00:01:57.611Z,9.20
2019-05-13T00:04:27.456Z,8.43
2019-05-13T00:06:57.970Z,8.18
2019-05-13T00:09:27.809Z,8.08
2019-05-13T00:11:57.591Z,7.42
2019-05-13T00:14:27.428Z,6.75
2019-05-13T00:16:57.300Z,7.08
2019-05-13T00:19:27.210Z,6.85
2019-05-13T00:21:57.211Z,6.80
2019-05-13T00:24:27.002Z,7.85
2019-05-13T00:26:57.313Z,7.33
2019-05-13T00:29:27.128Z,7.17
2019-05-13T00:31:56.924Z,7.42
2019-05-13T00:34:26.950Z,6.03
2019-05-13T00:37:07.777Z,6.45
2019-05-13T00:39:29.392Z,6.40
2019-05-13T00:41:59.203Z,6.40
2019-05-13T00:44:29.024Z,6.30
2019-05-13T00:46:59.365Z,6.12
2019-05-13T00:49:30.754Z,6.17
2019-05-13T00:52:00.651Z,6.40
2019-05-13T00:54:30.427Z,6.42
2019-05-13T00:57:00.720Z,5.95
2019-05-13T00:59:33.829Z,5.87
2019-05-13T01:02:04.174Z,6.00
2019-05-13T01:04:34.185Z,6.12
2019-05-13T01:07:04.738Z,6.28
2019-05-13T01:09:34.525Z,7.35
2019-05-13T01:12:04.578Z,6.60
2019-05-13T01:14:34.704Z,5.85
2019-05-13T01:17:05.639Z,5.90
2019-05-13T01:19:36.396Z,6.17
2019-05-13T01:22:06.291Z,6.00
2019-05-13T01:24:36.086Z,5.83
2019-05-13T01:27:06.059Z,5.83
2019-05-13T01:29:36.347Z,6.30
2019-05-13T01:32:06.158Z,6.22
2019-05-13T01:34:36.142Z,5.78
2019-05-13T01:37:06.181Z,5.95
2019-05-13T01:39:35.981Z,6.78
2019-05-13T01:42:05.894Z,5.62
2019-05-13T01:44:35.900Z,6.45
2019-05-13T01:47:07.257Z,5.87
2019-05-13T01:49:38.047Z,6.03
2019-05-13T01:52:07.860Z,6.22
2019-05-13T01:54:38.769Z,6.50
2019-05-13T01:57:14.321Z,5.78
2019-05-13T01:59:44.276Z,6.55
2019-05-13T02:02:14.807Z,6.42
2019-05-13T02:04:45.595Z,7.12
2019-05-13T02:07:15.822Z,6.70
2019-05-13T02:09:45.664Z,7.10
2019-05-13T02:12:15.806Z,6.40
2019-05-13T02:14:45.603Z,7.03
2019-05-13T02:17:15.584Z,6.72
2019-05-13T02:19:45.748Z,7.97
2019-05-13T02:22:15.540Z,7.42
2019-05-13T02:24:45.391Z,8.15
2019-05-13T02:27:17.563Z,7.78
2019-05-13T02:29:48.025Z,8.98
2019-05-13T02:32:17.808Z,9.05
2019-05-13T02:34:47.936Z,9.98
2019-05-13T02:37:18.897Z,9.78
2019-05-13T02:39:52.935Z,11.05
2019-05-13T02:42:22.976Z,10.23
2019-05-13T02:44:53.229Z,9.50
2019-05-13T02:47:23.015Z,10.03
2019-05-13T02:49:53.479Z,11.95
2019-05-13T02:52:23.307Z,11.20
2019-05-13T02:54:53.127Z,10.60
2019-05-13T02:57:23.475Z,10.98
2019-05-13T02:59:53.385Z,11.43
2019-05-13T03:02:23.189Z,12.03
2019-05-13T03:04:53.056Z,11.18
2019-05-13T03:07:23.503Z,11.73
2019-05-13T03:09:54.333Z,11.80
2019-05-13T03:12:24.185Z,12.18
2019-05-13T03:14:53.964Z,11.93
2019-05-13T03:17:35.349Z,12.98
2019-05-13T03:20:11.940Z,12.85
2019-05-13T03:22:43.293Z,14.00
2019-05-13T03:25:13.051Z,12.90
2019-05-13T03:27:43.076Z,13.83
2019-05-13T03:30:16.433Z,14.10
2019-05-13T03:32:53.168Z,13.80
2019-05-13T03:35:17.700Z,13.45
2019-05-13T03:37:47.647Z,13.75
2019-05-13T03:40:17.453Z,15.05
2019-05-13T03:42:49.053Z,14.68
2019-05-13T03:45:21.963Z,13.93
2019-05-13T03:48:12.630Z,14.85
2019-05-13T03:50:43.505Z,15.35
2019-05-13T03:53:13.572Z,15.20
2019-05-13T03:55:43.845Z,15.40
2019-05-13T03:58:15.379Z,16.35
2019-05-13T04:00:45.665Z,15.60
2019-05-13T04:03:15.470Z,15.72
2019-05-13T04:05:45.424Z,16.62
2019-05-13T04:08:17.260Z,17.00
2019-05-13T04:10:47.072Z,16.50
2019-05-13T04:13:18.009Z,16.27
2019-05-13T04:15:47.946Z,16.17
2019-05-13T04:18:17.837Z,16.77
2019-05-13T04:20:48.584Z,17.07
2019-05-13T04:23:18.415Z,17.05
2019-05-13T04:25:48.918Z,16.97
2019-05-13T04:28:21.950Z,16.97
2019-05-13T04:30:52.609Z,17.02
2019-05-13T04:33:23.252Z,17.98
2019-05-13T04:35:53.322Z,18.32
2019-05-13T04:38:23.224Z,18.32
2019-05-13T04:40:54.016Z,18.25
2019-05-13T04:43:24.863Z,18.70
2019-05-13T04:45:54.700Z,17.40
2019-05-13T04:48:25.820Z,17.92
2019-05-13T04:50:55.929Z,17.87
2019-05-13T04:53:26.541Z,18.52
2019-05-13T04:55:56.340Z,17.60
2019-05-13T04:58:27.271Z,18.00
2019-05-13T05:01:17.907Z,16.95
2019-05-13T05:04:13.900Z,17.95
2019-05-13T05:06:55.142Z,17.92
2019-05-13T05:10:15.460Z,17.12
2019-05-13T05:12:56.628Z,17.73
2019-05-13T05:15:52.429Z,17.55
2019-05-13T05:18:57.120Z,17.87
2019-05-13T05:21:38.196Z,16.87
2019-05-13T05:24:23.371Z,17.48
2019-05-13T05:27:15.791Z,17.23
2019-05-13T05:30:13.115Z,16.82
2019-05-13T05:33:11.286Z,16.60
2019-05-13T05:35:55.058Z,16.30
2019-05-13T05:38:44.043Z,15.40
2019-05-13T05:41:17.781Z,16.20
2019-05-13T05:43:52.213Z,16.30
2019-05-13T05:46:24.198Z,16.52
2019-05-13T05:48:55.670Z,16.10
2019-05-13T05:51:25.756Z,15.34
2019-05-13T05:53:57.661Z,15.75
2019-05-13T05:56:32.474Z,14.18
2019-05-13T05:59:03.538Z,14.75
2019-05-13T06:01:37.204Z,14.60
2019-05-13T06:04:06.582Z,14.35
2019-05-13T06:06:41.370Z,14.40
2019-05-13T06:09:12.228Z,14.35
2019-05-13T06:11:42.108Z,14.50
2019-05-13T06:14:12.040Z,13.98
2019-05-13T06:16:43.968Z,14.03
2019-05-13T06:19:17.576Z,13.65
2019-05-13T06:21:46.040Z,13.80
2019-05-13T06:24:16.058Z,14.20
2019-05-13T06:26:46.435Z,13.25
2019-05-13T06:29:16.269Z,12.98
2019-05-13T06:31:46.063Z,12.70
2019-05-13T06:34:16.233Z,13.00
2019-05-13T06:36:46.069Z,13.03
2019-05-13T06:39:16.060Z,13.05
2019-05-13T06:41:45.852Z,13.15
2019-05-13T06:44:15.692Z,12.13
2019-05-13T06:46:45.599Z,12.07
2019-05-13T06:49:16.208Z,12.15
2019-05-13T06:51:46.034Z,11.75
2019-05-13T06:54:15.973Z,11.88
2019-05-13T06:56:46.070Z,11.00
2019-05-13T06:59:15.892Z,10.75
2019-05-13T07:01:45.939Z,11.45
2019-05-13T07:04:15.728Z,9.85
2019-05-13T07:06:45.689Z,10.00
2019-05-13T07:09:15.732Z,9.48
2019-05-13T07:11:45.568Z,9.00
2019-05-13T07:14:15.339Z,8.65
2019-05-13T07:16:45.296Z,9.40
2019-05-13T07:19:15.335Z,9.50
2019-05-13T07:21:45.276Z,9.20
2019-05-13T07:24:15.590Z,8.30
2019-05-13T07:26:45.593Z,9.05
2019-05-13T07:29:15.840Z,8.48
2019-05-13T07:31:46.033Z,8.25
2019-05-13T07:34:15.839Z,8.10
2019-05-13T07:36:46.910Z,8.28
2019-05-13T07:39:17.369Z,8.95
2019-05-13T07:41:47.247Z,7.58
2019-05-13T07:44:17.090Z,7.87
2019-05-13T07:46:47.532Z,7.67
2019-05-13T07:49:17.315Z,7.83
2019-05-13T07:51:47.139Z,6.93
2019-05-13T07:54:16.937Z,7.65
2019-05-13T07:56:47.498Z,6.53
2019-05-13T07:59:17.334Z,7.10
2019-05-13T08:01:47.132Z,6.47
2019-05-13T08:04:22.392Z,6.47
2019-05-13T08:06:52.208Z,6.55
2019-05-13T08:09:21.655Z,7.35
2019-05-13T08:12:04.689Z,6.72
2019-05-13T08:14:23.651Z,6.55
2019-05-13T08:16:54.644Z,7.22
2019-05-13T08:19:24.557Z,6.58
2019-05-13T08:21:54.632Z,6.50
2019-05-13T08:24:24.406Z,6.28
2019-05-13T08:26:54.749Z,5.85
2019-05-13T08:29:24.618Z,6.65
2019-05-13T08:31:54.428Z,6.72
2019-05-13T08:34:24.570Z,6.08
2019-05-13T08:36:54.472Z,6.33
2019-05-13T08:39:26.774Z,5.47
2019-05-13T08:42:04.121Z,5.97
2019-05-13T08:44:27.106Z,6.53
2019-05-13T08:46:58.540Z,5.90
2019-05-13T08:49:29.263Z,6.08
2019-05-13T08:52:01.560Z,5.95
2019-05-13T08:54:32.841Z,5.60
2019-05-13T08:57:03.057Z,5.45
2019-05-13T08:59:34.156Z,6.08
2019-05-13T09:02:04.380Z,6.03
2019-05-13T09:04:34.332Z,6.20
2019-05-13T09:07:04.430Z,5.97
2019-05-13T09:09:34.210Z,6.20
2019-05-13T09:12:04.940Z,5.65
2019-05-13T09:14:34.764Z,6.17
2019-05-13T09:17:04.725Z,5.80
2019-05-13T09:19:34.514Z,6.47
2019-05-13T09:22:04.346Z,6.15
2019-05-13T09:24:37.755Z,6.03
2019-05-13T09:27:06.885Z,5.40
2019-05-13T09:29:36.756Z,6.47
2019-05-13T09:32:06.614Z,5.20
2019-05-13T09:34:36.757Z,6.47
2019-05-13T09:37:06.796Z,6.05
2019-05-13T09:39:36.648Z,5.25
2019-05-13T09:42:06.832Z,5.95
2019-05-13T09:44:36.656Z,5.83
2019-05-13T09:47:06.515Z,5.55
2019-05-13T09:49:36.457Z,5.67
2019-05-13T09:52:06.278Z,5.70
2019-05-13T09:54:36.088Z,5.42
2019-05-13T09:57:06.438Z,5.55
2019-05-13T09:59:36.275Z,5.83
2019-05-13T10:02:06.128Z,4.75
2019-05-13T10:04:36.471Z,5.25
2019-05-13T10:07:06.447Z,5.33
2019-05-13T10:09:36.300Z,4.62
2019-05-13T10:12:07.281Z,5.33
2019-05-13T10:14:43.873Z,5.20
2019-05-13T10:17:13.732Z,4.87
2019-05-13T10:19:43.519Z,4.92
2019-05-13T10:22:13.416Z,6.05
2019-05-13T10:24:43.449Z,5.17
2019-05-13T10:27:18.661Z,4.87
2019-05-13T10:29:46.401Z,5.12
2019-05-13T10:32:17.339Z,4.50
2019-05-13T10:34:47.426Z,4.75
2019-05-13T10:37:18.381Z,4.47
2019-05-13T10:39:48.184Z,3.92
2019-05-13T10:42:18.121Z,3.77
2019-05-13T10:44:48.328Z,3.50
2019-05-13T10:47:18.121Z,3.90
2019-05-13T10:49:48.191Z,3.50
2019-05-13T10:52:18.058Z,4.10
2019-05-13T10:54:47.984Z,3.72
2019-05-13T10:57:18.079Z,4.50
2019-05-13T10:59:47.948Z,4.03
2019-05-13T11:02:17.888Z,3.33
2019-05-13T11:04:47.987Z,4.08
2019-05-13T11:07:18.154Z,3.75
2019-05-13T11:09:47.941Z,4.08
2019-05-13T11:12:17.763Z,3.87
2019-05-13T11:14:51.484Z,3.90
2019-05-13T11:17:23.303Z,3.50
2019-05-13T11:19:51.222Z,3.77
2019-05-13T11:22:22.600Z,3.83
2019-05-13T11:24:52.711Z,4.00
2019-05-13T11:27:23.463Z,3.58
2019-05-13T11:29:54.305Z,3.83
2019-05-13T11:32:25.036Z,3.70
2019-05-13T11:34:54.903Z,3.72
2019-05-13T11:37:24.761Z,3.87
2019-05-13T11:39:54.582Z,4.05
2019-05-13T11:42:24.447Z,3.80
2019-05-13T11:44:55.313Z,3.85
2019-05-13T11:47:26.128Z,3.67
2019-05-13T11:49:55.903Z,3.62
2019-05-13T11:52:25.799Z,3.77
2019-05-13T11:54:57.846Z,4.12
2019-05-13T11:57:27.672Z,4.20
2019-05-13T11:59:57.903Z,3.92
2019-05-13T12:02:27.772Z,3.52
2019-05-13T12:04:57.633Z,3.45
2019-05-13T12:07:27.940Z,3.55
2019-05-13T12:09:58.756Z,3.47
2019-05-13T12:12:31.795Z,4.03
2019-05-13T12:15:22.414Z,4.17
2019-05-13T12:17:33.908Z,3.62
2019-05-13T12:20:03.784Z,3.30
2019-05-13T12:22:33.583Z,3.30
2019-05-13T12:25:04.675Z,4.03
2019-05-13T12:27:35.136Z,3.80
2019-05-13T12:30:06.524Z,4.35
2019-05-13T12:32:44.239Z,4.11
2019-05-13T12:35:14.106Z,3.67
2019-05-13T12:37:44.013Z,4.60
2019-05-13T12:40:13.971Z,4.50
2019-05-13T12:42:47.102Z,4.55
2019-05-13T12:45:15.174Z,4.20
2019-05-13T12:47:45.773Z,4.03
2019-05-13T12:50:15.874Z,4.67
2019-05-13T12:52:46.250Z,3.85
2019-05-13T12:55:18.401Z,3.75
2019-05-13T12:57:48.579Z,4.05
2019-05-13T13:00:18.810Z,5.03
2019-05-13T13:02:51.611Z,4.55
2019-05-13T13:05:23.990Z,5.05
2019-05-13T13:08:16.682Z,4.70
2019-05-13T13:10:25.821Z,4.80
2019-05-13T13:12:56.236Z,4.50
2019-05-13T13:15:41.011Z,5.00
2019-05-13T13:17:58.413Z,4.72
2019-05-13T13:20:28.215Z,5.42
2019-05-13T13:22:58.282Z,4.70
2019-05-13T13:25:28.227Z,4.70
2019-05-13T13:28:10.080Z,4.62
2019-05-13T13:33:03.731Z,4.50
2019-05-13T13:35:34.081Z,4.80
2019-05-13T13:38:04.562Z,4.65
2019-05-13T13:40:35.707Z,4.80
2019-05-13T13:43:05.707Z,4.17
2019-05-13T13:48:06.982Z,4.97
2019-05-13T13:50:36.768Z,5.28
2019-05-13T13:53:06.878Z,4.58
2019-05-13T13:55:37.103Z,4.85
2019-05-13T13:58:07.909Z,4.72
2019-05-13T14:03:12.172Z,5.42
2019-05-13T14:05:42.762Z,5.17
2019-05-13T14:06:58.378Z,4.37
2019-05-13T14:06:58.777Z,4.60
2019-05-13T14:07:13.040Z,4.58
2019-05-13T14:08:12.756Z,4.70
2019-05-13T14:10:43.140Z,4.80
2019-05-13T14:13:12.933Z,5.40
2019-05-13T14:15:42.711Z,5.12
2019-05-13T14:18:14.740Z,4.50
2019-05-13T14:20:45.180Z,4.67
2019-05-13T14:23:14.987Z,6.03
2019-05-13T14:25:44.830Z,5.00
2019-05-13T14:28:17.610Z,5.37
2019-05-13T14:30:47.671Z,5.25
2019-05-13T14:33:17.481Z,4.97
2019-05-13T14:35:47.267Z,5.60
2019-05-13T14:38:17.242Z,5.05
2019-05-13T14:40:47.458Z,4.65
2019-05-13T14:43:17.511Z,6.12
2019-05-13T14:45:47.375Z,5.95
2019-05-13T14:48:17.430Z,5.45
2019-05-13T14:50:47.220Z,5.65
2019-05-13T14:53:17.007Z,5.97
2019-05-13T14:55:47.042Z,5.15
2019-05-13T14:58:16.837Z,5.00
2019-05-13T15:00:47.004Z,4.75
2019-05-13T15:03:16.869Z,4.97
2019-05-13T15:05:47.087Z,4.55
2019-05-13T15:08:16.959Z,5.30
2019-05-13T15:10:47.058Z,4.70
2019-05-13T15:13:16.919Z,4.90
2019-05-13T15:15:47.173Z,4.87
2019-05-13T15:18:17.264Z,4.80
2019-05-13T15:20:47.828Z,4.67
2019-05-13T15:23:17.851Z,4.55
2019-05-13T15:25:48.763Z,4.85
2019-05-13T15:28:19.336Z,5.20
2019-05-13T15:30:51.395Z,5.05
2019-05-13T15:33:21.545Z,5.12
2019-05-13T15:35:52.275Z,5.95
2019-05-13T15:38:22.397Z,4.58
2019-05-13T15:40:52.358Z,4.97
2019-05-13T15:43:22.459Z,5.47
2019-05-13T15:45:52.298Z,5.40
2019-05-13T15:48:22.350Z,4.85
2019-05-13T15:50:52.979Z,4.90
2019-05-13T15:53:22.810Z,4.92
2019-05-13T15:55:52.628Z,5.33
2019-05-13T15:58:37.975Z,5.67
2019-05-13T16:00:53.951Z,4.70
2019-05-13T16:03:24.092Z,5.05
2019-05-13T16:05:54.739Z,5.58
2019-05-13T16:08:24.759Z,5.22
2019-05-13T16:10:54.626Z,5.10
2019-05-13T16:13:24.778Z,5.20
2019-05-13T16:15:54.579Z,4.90
2019-05-13T16:18:24.498Z,5.20
2019-05-13T16:20:54.904Z,4.47
2019-05-13T16:23:24.689Z,4.95
2019-05-13T16:25:54.607Z,5.05
2019-05-13T16:28:24.610Z,4.65
2019-05-13T16:30:54.691Z,4.62
2019-05-13T16:33:24.619Z,5.53
2019-05-13T16:35:54.399Z,5.28
2019-05-13T16:38:24.189Z,4.47
2019-05-13T16:40:54.029Z,5.03
2019-05-13T16:43:24.574Z,4.90
2019-05-13T16:45:54.439Z,5.50
2019-05-13T16:48:24.273Z,4.95
2019-05-13T16:50:54.389Z,4.60
2019-05-13T16:53:25.949Z,4.58
2019-05-13T16:55:56.496Z,4.50
2019-05-13T16:58:26.583Z,4.22
2019-05-13T17:00:56.771Z,4.25
2019-05-13T17:03:26.593Z,4.53
2019-05-13T17:05:56.969Z,4.75
2019-05-13T17:08:27.775Z,4.58
2019-05-13T17:10:58.313Z,4.60
2019-05-13T17:13:31.364Z,4.40
2019-05-13T17:16:01.975Z,4.72
2019-05-13T17:18:32.574Z,4.17
2019-05-13T17:21:02.513Z,4.00
2019-05-13T17:23:32.306Z,4.80
2019-05-13T17:26:02.906Z,4.90
2019-05-13T17:28:34.436Z,5.20
2019-05-13T17:31:05.192Z,5.10
2019-05-13T17:33:35.879Z,5.10
2019-05-13T17:36:05.860Z,5.45
2019-05-13T17:38:37.243Z,5.17
2019-05-13T17:41:08.015Z,5.65
2019-05-13T17:43:41.173Z,5.70
2019-05-13T17:46:10.318Z,5.22
2019-05-13T17:48:41.704Z,5.58
2019-05-13T17:51:13.142Z,4.97
2019-05-13T17:53:43.042Z,4.75
2019-05-13T17:56:13.589Z,4.80
2019-05-13T17:58:43.475Z,5.20
2019-05-13T18:01:13.368Z,4.72
2019-05-13T18:03:43.257Z,5.03
2019-05-13T18:06:13.794Z,4.60
2019-05-13T18:08:43.578Z,4.47
2019-05-13T18:11:13.422Z,6.40
2019-05-13T18:13:43.895Z,4.85
2019-05-13T18:16:13.639Z,4.78
2019-05-13T18:18:47.346Z,4.62
2019-05-13T18:21:14.887Z,4.22
2019-05-13T18:23:44.983Z,3.90
2019-05-13T18:26:16.242Z,4.30
2019-05-13T18:28:48.363Z,4.60
2019-05-13T18:31:18.149Z,4.45
2019-05-13T18:33:47.978Z,4.05
2019-05-13T18:36:18.501Z,3.67
2019-05-13T18:38:48.310Z,3.50
2019-05-13T18:41:18.121Z,4.00
2019-05-13T18:43:48.453Z,3.72
2019-05-13T18:46:18.425Z,3.75
2019-05-13T18:48:58.792Z,3.83
2019-05-13T18:51:21.155Z,3.67
2019-05-13T18:53:51.925Z,3.08
2019-05-13T18:56:22.521Z,3.65
2019-05-13T18:58:53.263Z,3.42
2019-05-13T19:01:23.062Z,3.27
2019-05-13T19:03:52.894Z,3.30
2019-05-13T19:06:23.086Z,3.27
2019-05-13T19:08:52.993Z,3.02
2019-05-13T19:11:22.805Z,2.92
2019-05-13T19:13:53.294Z,2.72
2019-05-13T19:16:23.162Z,3.15
2019-05-13T19:18:53.049Z,3.22
2019-05-13T19:21:22.832Z,2.70
2019-05-13T19:23:52.612Z,3.20
2019-05-13T19:26:22.442Z,2.80
2019-05-13T19:28:52.947Z,2.77
2019-05-13T19:31:22.827Z,2.92
2019-05-13T19:33:52.652Z,2.85
2019-05-13T19:36:22.787Z,2.87
2019-05-13T19:38:52.587Z,2.87
2019-05-13T19:41:22.407Z,3.08
2019-05-13T19:43:52.885Z,3.83
2019-05-13T19:46:25.632Z,3.35
2019-05-13T19:48:54.947Z,2.98
2019-05-13T19:51:28.048Z,3.20
2019-05-13T19:53:56.242Z,2.85
2019-05-13T19:56:27.947Z,3.37
2019-05-13T19:58:58.145Z,3.02
2019-05-13T20:01:27.939Z,4.08
2019-05-13T20:03:57.769Z,3.52
2019-05-13T20:06:28.427Z,3.90
2019-05-13T20:08:58.215Z,3.65
2019-05-13T20:11:28.027Z,3.60
2019-05-13T20:13:58.329Z,3.65
2019-05-13T20:16:28.351Z,3.85
2019-05-13T20:18:58.179Z,4.10
2019-05-13T20:21:27.987Z,4.20
2019-05-13T20:23:57.764Z,4.75
2019-05-13T20:26:27.716Z,4.60
2019-05-13T20:28:57.928Z,4.83
2019-05-13T20:31:27.731Z,4.53
2019-05-13T20:33:57.558Z,4.10
2019-05-13T20:36:45.259Z,4.55
2019-05-13T20:39:15.106Z,4.92
2019-05-13T20:41:45.491Z,4.42
2019-05-13T20:44:15.291Z,4.33
2019-05-13T20:46:46.715Z,4.53
2019-05-13T20:49:17.607Z,4.30
2019-05-13T20:51:47.474Z,4.53
2019-05-13T20:54:17.319Z,4.65
2019-05-13T20:56:47.735Z,4.40
2019-05-13T20:59:36.832Z,4.67
2019-05-13T21:02:06.617Z,4.92
2019-05-13T21:04:36.412Z,4.60
2019-05-13T21:07:07.598Z,5.60
2019-05-13T21:09:37.395Z,5.10
2019-05-13T21:12:08.740Z,5.40
2019-05-13T21:14:38.668Z,5.60
2019-05-13T21:17:12.046Z,6.17
2019-05-13T21:19:42.842Z,5.92
2019-05-13T21:22:12.918Z,5.90
2019-05-13T21:24:42.708Z,5.85
2019-05-13T21:27:12.922Z,6.60
2019-05-13T21:29:43.267Z,6.42
2019-05-13T21:32:13.066Z,6.97
2019-05-13T21:34:43.234Z,6.33
2019-05-13T21:37:15.120Z,6.45
2019-05-13T21:39:45.762Z,6.05
2019-05-13T21:42:15.767Z,5.90
2019-05-13T21:44:45.617Z,6.15
2019-05-13T21:47:15.519Z,8.48
2019-05-13T21:49:45.465Z,8.48
2019-05-13T21:52:15.469Z,6.72
2019-05-13T21:54:45.258Z,7.17
2019-05-13T21:57:18.072Z,6.97
2019-05-13T21:59:47.961Z,5.80
2019-05-13T22:02:17.838Z,5.42
2019-05-13T22:04:47.706Z,5.60
2019-05-13T22:07:17.597Z,5.45
2019-05-13T22:09:47.467Z,5.85
2019-05-13T22:12:17.805Z,5.72
2019-05-13T22:14:47.642Z,5.33
2019-05-13T22:17:17.575Z,5.22
2019-05-13T22:19:47.403Z,5.92
2019-05-13T22:22:17.308Z,6.50
2019-05-13T22:24:47.102Z,6.20
2019-05-13T22:27:17.513Z,6.50
2019-05-13T22:29:47.350Z,6.03
2019-05-13T22:32:17.145Z,6.10
2019-05-13T22:34:47.443Z,5.72
2019-05-13T22:37:17.311Z,6.25
2019-05-13T22:39:47.106Z,6.45
2019-05-13T22:42:17.143Z,7.47
2019-05-13T22:44:47.005Z,6.92
2019-05-13T22:47:17.073Z,6.62
2019-05-13T22:49:47.576Z,7.30
2019-05-13T22:52:17.415Z,6.72
2019-05-13T22:54:47.201Z,7.08
2019-05-13T22:57:17.601Z,7.37
2019-05-13T22:59:47.473Z,6.70
2019-05-13T23:02:17.432Z,7.25
2019-05-13T23:04:47.240Z,7.15
2019-05-13T23:07:17.069Z,6.95
2019-05-13T23:09:47.278Z,6.33
2019-05-13T23:12:17.063Z,6.17
2019-05-13T23:14:46.900Z,6.28
2019-05-13T23:17:17.170Z,7.03
2019-05-13T23:19:46.964Z,6.92
2019-05-13T23:22:16.787Z,6.92
2019-05-13T23:24:47.512Z,7.55
2019-05-13T23:27:17.547Z,6.97
2019-05-13T23:29:47.369Z,6.37
2019-05-13T23:32:17.154Z,7.35
2019-05-13T23:34:46.954Z,6.95
2019-05-13T23:37:17.282Z,7.42
2019-05-13T23:39:47.073Z,6.40
2019-05-13T23:42:16.898Z,6.70
2019-05-13T23:44:46.766Z,6.33
2019-05-13T23:47:16.787Z,6.10
2019-05-13T23:49:46.667Z,6.05
2019-05-13T23:52:16.644Z,6.10
2019-05-13T23:54:48.339Z,6.62
2019-05-13T23:57:18.199Z,6.42
2019-05-13T23:59:48.434Z,6.15
